Time;durP1;ratioP1;P1;durP2;ratioP2;P2;SDS_P1;SDS_P2;PMS_P1;PMS_P2;Temp;Humidity;BMP_temperature;BMP_pressure;BME280_temperature;BME280_humidity;BME280_pressure;Samples;Min_cycle;Max_cycle;Signal;HPM_P1;HPM_P2
2023/09/04 00:01:07;;;;;;;5.35;3.05;;;;;;;12.34;100.00;102283.56;5912866;29;20188;-67
2023/09/04 00:04:03;;;;;;;4.27;2.33;;;;;;;11.96;100.00;102293.66;5912309;29;20032;-68
2023/09/04 00:06:59;;;;;;;6.75;3.10;;;;;;;12.60;100.00;102285.06;5912552;29;20095;-68
2023/09/04 00:09:54;;;;;;;5.03;3.07;;;;;;;13.14;100.00;102290.50;5913065;29;20032;-68
2023/09/04 00:12:49;;;;;;;4.60;2.60;;;;;;;12.58;100.00;102283.50;5913170;29;20273;-69
2023/09/04 00:15:45;;;;;;;5.23;2.67;;;;;;;12.15;100.00;102278.81;5911982;29;20040;-66
2023/09/04 00:18:40;;;;;;;4.40;2.50;;;;;;;11.93;100.00;102278.75;5912739;29;20056;-67
2023/09/04 00:21:35;;;;;;;3.67;2.33;;;;;;;12.09;100.00;102273.13;5912761;29;20064;-67
2023/09/04 00:24:31;;;;;;;4.90;2.60;;;;;;;12.32;100.00;102281.03;5912267;29;20045;-67
2023/09/04 00:27:26;;;;;;;5.50;2.80;;;;;;;12.28;100.00;102284.91;5912607;29;20033;-68
2023/09/04 00:30:22;;;;;;;4.80;2.77;;;;;;;12.31;100.00;102291.81;5910126;29;20115;-67
2023/09/04 00:33:17;;;;;;;5.22;2.60;;;;;;;12.24;100.00;102277.25;5911777;29;20041;-67
2023/09/04 00:36:13;;;;;;;4.73;2.43;;;;;;;12.53;100.00;102266.06;5912152;29;20084;-67
2023/09/04 00:39:08;;;;;;;5.60;2.67;;;;;;;12.59;100.00;102272.72;5912321;29;20088;-67
2023/09/04 00:42:03;;;;;;;10.80;2.80;;;;;;;12.52;100.00;102279.50;5911105;29;20480;-68
2023/09/04 00:45:00;;;;;;;5.80;2.97;;;;;;;12.65;100.00;102272.22;5911371;29;20032;-67
2023/09/04 00:47:56;;;;;;;5.07;2.80;;;;;;;12.32;100.00;102274.84;5912495;29;20036;-67
2023/09/04 00:50:51;;;;;;;7.93;2.80;;;;;;;12.14;100.00;102271.81;5911987;29;20072;-68
2023/09/04 00:53:47;;;;;;;5.10;2.83;;;;;;;12.50;100.00;102278.78;5911559;29;20115;-67
2023/09/04 00:56:42;;;;;;;6.05;2.95;;;;;;;12.59;100.00;102287.81;5895161;29;20050;-68
2023/09/04 00:59:40;;;;;;;4.43;2.38;;;;;;;12.13;100.00;102280.75;5911454;29;20043;-67
2023/09/04 01:02:36;;;;;;;4.80;2.70;;;;;;;12.36;100.00;102293.16;5912178;29;20392;-67
2023/09/04 01:05:32;;;;;;;4.95;2.67;;;;;;;12.27;100.00;102277.03;5895475;29;20122;-68
2023/09/04 01:08:27;;;;;;;5.75;2.90;;;;;;;11.94;100.00;102270.69;5911781;29;20082;-67
2023/09/04 01:11:40;;;;;;;4.28;2.58;;;;;;;12.06;100.00;102266.25;5911480;29;20385;-68
2023/09/04 01:14:36;;;;;;;6.95;3.20;;;;;;;12.40;100.00;102267.13;5918233;29;20100;-67
2023/09/04 01:17:31;;;;;;;7.03;3.10;;;;;;;12.35;100.00;102261.31;5906141;29;20044;-67
2023/09/04 01:20:31;;;;;;;5.50;3.00;;;;;;;12.31;100.00;102274.00;5926447;29;20485;-68
2023/09/04 01:23:26;;;;;;;6.28;2.75;;;;;;;12.47;100.00;102266.53;5910026;29;20040;-68
2023/09/04 01:26:28;;;;;;;7.20;2.97;;;;;;;12.27;100.00;102266.41;5911099;29;20090;-67
2023/09/04 01:29:31;;;;;;;5.45;2.67;;;;;;;12.31;100.00;102270.53;5894410;29;20032;-67
2023/09/04 01:32:37;;;;;;;7.05;3.00;;;;;;;12.24;100.00;102270.13;5896801;29;21296;-66
2023/09/04 01:35:34;;;;;;;7.40;2.70;;;;;;;12.35;100.00;102261.31;5915953;29;20048;-67
2023/09/04 01:38:32;;;;;;;6.13;3.25;;;;;;;12.17;100.00;102254.78;5895290;29;20067;-67
2023/09/04 01:41:27;;;;;;;6.05;3.22;;;;;;;12.25;100.00;102263.00;5915594;29;20089;-66
2023/09/04 01:44:22;;;;;;;7.40;3.40;;;;;;;12.31;100.00;102262.53;5910612;29;20036;-67
2023/09/04 01:47:18;;;;;;;6.53;3.10;;;;;;;12.53;100.00;102268.72;5910298;29;20092;-67
2023/09/04 01:50:13;;;;;;;9.40;3.60;;;;;;;12.59;100.00;102256.75;5910985;29;20276;-66
2023/09/04 01:53:08;;;;;;;5.15;3.28;;;;;;;12.33;100.00;102255.28;5910308;29;20647;-66
2023/09/04 01:56:04;;;;;;;10.27;3.37;;;;;;;12.20;100.00;102251.88;5910071;29;20036;-67
2023/09/04 01:58:59;;;;;;;6.30;3.10;;;;;;;12.37;100.00;102256.72;5910997;29;20137;-66
2023/09/04 02:01:54;;;;;;;6.90;3.23;;;;;;;12.42;100.00;102274.03;5910375;29;20127;-68
2023/09/04 02:04:50;;;;;;;5.47;3.33;;;;;;;12.22;100.00;102248.16;5910084;29;20308;-67
2023/09/04 02:07:45;;;;;;;5.23;2.70;;;;;;;12.37;100.00;102246.94;5917650;29;20141;-67
2023/09/04 02:10:40;;;;;;;4.47;2.70;;;;;;;12.03;100.00;102262.97;5910788;29;20392;-67
2023/09/04 02:13:36;;;;;;;7.77;4.03;;;;;;;11.93;100.00;102247.72;5910190;29;20047;-66
2023/09/04 02:16:31;;;;;;;6.23;3.80;;;;;;;11.98;100.00;102249.19;5910623;29;20844;-67
2023/09/04 02:19:26;;;;;;;6.03;3.73;;;;;;;11.76;100.00;102229.56;5910668;29;20043;-67
2023/09/04 02:22:22;;;;;;;8.40;3.97;;;;;;;11.92;100.00;102242.53;5910554;29;20041;-67
2023/09/04 02:25:17;;;;;;;7.38;3.97;;;;;;;11.94;100.00;102238.78;5909781;29;20281;-67
2023/09/04 02:28:12;;;;;;;10.13;4.07;;;;;;;12.01;100.00;102244.47;5910453;29;20044;-67
2023/09/04 02:31:08;;;;;;;7.60;4.50;;;;;;;11.83;100.00;102253.84;5910312;29;20385;-67
2023/09/04 02:34:03;;;;;;;7.70;3.60;;;;;;;11.69;100.00;102248.72;5909480;29;20080;-67
2023/09/04 02:36:59;;;;;;;7.00;4.20;;;;;;;11.77;100.00;102252.50;5910427;29;20403;-67
2023/09/04 02:39:54;;;;;;;6.80;3.67;;;;;;;11.84;100.00;102256.41;5918658;29;20028;-66
2023/09/04 02:42:49;;;;;;;11.43;4.07;;;;;;;11.52;100.00;102252.63;5917620;29;20277;-66
2023/09/04 02:45:46;;;;;;;7.47;4.10;;;;;;;11.50;100.00;102241.25;5909629;29;20645;-68
2023/09/04 02:48:41;;;;;;;6.93;4.40;;;;;;;11.57;100.00;102250.47;5910450;29;20040;-68
2023/09/04 02:51:37;;;;;;;6.77;4.03;;;;;;;11.64;100.00;102233.09;5910051;29;20044;-67
2023/09/04 02:54:32;;;;;;;7.63;4.27;;;;;;;11.67;100.00;102238.19;5909713;29;20881;-67
2023/09/04 02:57:29;;;;;;;7.23;4.70;;;;;;;11.52;100.00;102251.78;5910239;29;20293;-66
2023/09/04 03:00:24;;;;;;;7.18;4.47;;;;;;;11.50;100.00;102238.59;5909965;29;20543;-67
2023/09/04 03:03:19;;;;;;;8.77;4.17;;;;;;;11.49;100.00;102231.59;5909649;29;20040;-68
2023/09/04 03:06:15;;;;;;;6.57;4.20;;;;;;;11.47;100.00;102230.03;5913537;29;20120;-67
2023/09/04 03:09:10;;;;;;;7.67;4.37;;;;;;;11.50;100.00;102240.41;5914672;29;20096;-67
2023/09/04 03:12:06;;;;;;;6.95;4.07;;;;;;;11.34;100.00;102224.75;5914429;29;20389;-67
2023/09/04 03:15:04;;;;;;;7.07;4.63;;;;;;;11.54;100.00;102229.44;5913460;29;20389;-67
2023/09/04 03:17:59;;;;;;;8.57;4.68;;;;;;;11.59;100.00;102255.66;5914345;29;20043;-66
2023/09/04 03:20:56;;;;;;;8.83;4.93;;;;;;;11.42;100.00;102232.16;5913896;29;20450;-68
2023/09/04 03:23:51;;;;;;;7.80;4.55;;;;;;;11.34;100.00;102222.09;5913546;29;20043;-67
2023/09/04 03:26:46;;;;;;;7.60;4.43;;;;;;;11.37;100.00;102237.81;5914168;29;20476;-66
2023/09/04 03:29:42;;;;;;;8.50;5.03;;;;;;;11.48;100.00;102244.97;5913895;29;20044;-67
2023/09/04 03:32:37;;;;;;;7.43;4.18;;;;;;;11.53;100.00;102243.69;5914019;29;20021;-66
2023/09/04 03:35:34;;;;;;;8.70;4.22;;;;;;;11.47;100.00;102238.81;5912239;29;20055;-67
2023/09/04 03:38:29;;;;;;;6.37;3.90;;;;;;;11.50;100.00;102238.59;5913930;29;20032;-66
2023/09/04 03:41:26;;;;;;;9.97;5.17;;;;;;;11.33;100.00;102217.78;5913742;29;20477;-66
2023/09/04 03:44:21;;;;;;;9.02;4.57;;;;;;;11.41;100.00;102228.66;5913019;29;20036;-67
2023/09/04 03:47:16;;;;;;;8.95;5.07;;;;;;;11.35;100.00;102216.69;5913703;29;20080;-67
2023/09/04 03:50:12;;;;;;;11.03;4.43;;;;;;;11.30;100.00;102237.44;5913511;29;20057;-67
2023/09/04 03:53:07;;;;;;;8.07;5.07;;;;;;;11.26;100.00;102229.78;5913610;29;20115;-67
2023/09/04 03:56:07;;;;;;;8.40;4.73;;;;;;;11.03;100.00;102220.03;5911464;29;20041;-66
2023/09/04 03:59:03;;;;;;;8.88;5.15;;;;;;;11.07;100.00;102232.94;5913651;29;20107;-65
2023/09/04 04:01:59;;;;;;;9.32;5.28;;;;;;;10.93;100.00;102225.13;5913346;29;20488;-67
2023/09/04 04:04:54;;;;;;;8.00;4.95;;;;;;;11.11;100.00;102237.09;5911047;29;20036;-67
2023/09/04 04:07:49;;;;;;;11.27;5.53;;;;;;;11.10;100.00;102221.25;5913163;29;20071;-66
2023/09/04 04:10:45;;;;;;;8.05;5.22;;;;;;;11.05;100.00;102234.03;5915634;29;20485;-65
2023/09/04 04:13:40;;;;;;;9.13;5.03;;;;;;;11.04;100.00;102234.97;5907522;29;20041;-67
2023/09/04 04:16:36;;;;;;;9.33;4.57;;;;;;;11.11;100.00;102225.63;5913916;29;20040;-67
2023/09/04 04:19:31;;;;;;;7.50;5.05;;;;;;;10.94;100.00;102226.00;5916475;29;20280;-66
2023/09/04 04:22:27;;;;;;;9.20;4.80;;;;;;;11.02;100.00;102244.84;5901465;29;20052;-67
2023/09/04 04:25:23;;;;;;;8.80;4.97;;;;;;;10.87;100.00;102228.22;5911997;29;20048;-66
2023/09/04 04:28:19;;;;;;;8.90;5.38;;;;;;;11.09;100.00;102249.59;5912746;29;20043;-67
2023/09/04 04:31:15;;;;;;;7.57;4.93;;;;;;;11.09;100.00;102244.28;5909101;29;20047;-65
2023/09/04 04:34:10;;;;;;;7.63;4.10;;;;;;;10.99;100.00;102243.28;5911745;29;20036;-66
2023/09/04 04:37:05;;;;;;;12.27;4.77;;;;;;;11.06;100.00;102254.31;5912803;29;20484;-66
2023/09/04 04:40:05;;;;;;;7.90;4.30;;;;;;;11.16;100.00;102236.75;5912055;29;20041;-67
2023/09/04 04:43:00;;;;;;;10.60;4.70;;;;;;;11.24;100.00;102248.50;5912409;29;20067;-67
2023/09/04 04:45:55;;;;;;;8.53;4.70;;;;;;;11.33;100.00;102257.59;5911778;29;20036;-67
2023/09/04 04:48:51;;;;;;;7.93;4.37;;;;;;;11.40;100.00;102258.84;5912059;29;20284;-66
2023/09/04 04:51:46;;;;;;;8.33;4.67;;;;;;;11.38;100.00;102263.44;5912235;29;20401;-65
2023/09/04 04:54:42;;;;;;;9.38;4.38;;;;;;;11.36;100.00;102244.06;5911063;29;20045;-67
2023/09/04 04:57:37;;;;;;;8.83;4.60;;;;;;;11.28;100.00;102249.09;5912076;29;20441;-66
2023/09/04 05:00:33;;;;;;;8.80;5.13;;;;;;;11.37;100.00;102245.78;5911767;29;20292;-66
2023/09/04 05:03:28;;;;;;;8.32;4.05;;;;;;;11.43;100.00;102261.28;5910770;29;20143;-66
2023/09/04 05:06:23;;;;;;;6.90;4.00;;;;;;;11.55;100.00;102264.84;5912045;29;20056;-67
2023/09/04 05:09:19;;;;;;;10.50;4.10;;;;;;;11.47;100.00;102261.91;5910673;29;20285;-66
2023/09/04 05:12:14;;;;;;;10.27;4.37;;;;;;;11.49;100.00;102257.31;5911707;29;20088;-67
2023/09/04 05:15:10;;;;;;;8.02;4.88;;;;;;;11.52;100.00;102263.25;5910943;29;20060;-67
2023/09/04 05:18:05;;;;;;;9.80;5.25;;;;;;;11.47;100.00;102268.03;5911853;29;20119;-67
2023/09/04 05:21:04;;;;;;;7.75;4.63;;;;;;;11.36;100.00;102273.28;5911377;29;20039;-66
2023/09/04 05:23:59;;;;;;;9.15;4.90;;;;;;;11.25;100.00;102246.69;5910499;29;20044;-67
2023/09/04 05:26:55;;;;;;;11.20;5.80;;;;;;;11.53;100.00;102248.13;5910916;29;20061;-66
2023/09/04 05:29:50;;;;;;;12.30;5.97;;;;;;;11.82;100.00;102260.97;5910854;29;20032;-66
2023/09/04 05:32:45;;;;;;;9.13;4.73;;;;;;;12.42;100.00;102233.25;5911213;29;20112;-66
2023/09/04 05:35:41;;;;;;;9.23;5.17;;;;;;;12.95;100.00;102264.47;5910548;29;20285;-67
2023/09/04 05:38:36;;;;;;;7.93;4.60;;;;;;;13.21;100.00;102253.56;5910211;29;20080;-67
2023/09/04 05:41:31;;;;;;;7.43;4.70;;;;;;;13.13;100.00;102264.00;5920548;29;20360;-66
2023/09/04 05:44:27;;;;;;;10.53;5.23;;;;;;;12.95;100.00;102264.47;5907913;29;20128;-65
2023/09/04 05:47:22;;;;;;;9.17;5.33;;;;;;;13.27;100.00;102253.03;5910595;29;20060;-65
2023/09/04 05:50:18;;;;;;;8.50;4.97;;;;;;;13.49;100.00;102252.97;5910486;29;20048;-66
2023/09/04 05:53:14;;;;;;;10.50;5.07;;;;;;;13.48;100.00;102260.13;5909747;29;20542;-65
2023/09/04 05:56:10;;;;;;;9.33;5.40;;;;;;;13.87;100.00;102253.28;5910213;29;20047;-67
2023/09/04 05:59:06;;;;;;;8.05;4.28;;;;;;;14.92;100.00;102270.88;5910125;29;20029;-68
2023/09/04 06:02:01;;;;;;;7.67;4.00;;;;;;;14.99;100.00;102270.19;5905005;29;20068;-66
2023/09/04 06:04:56;;;;;;;9.13;3.93;;;;;;;14.27;100.00;102272.91;5908915;29;20107;-67
2023/09/04 06:07:51;;;;;;;8.77;4.60;;;;;;;13.90;100.00;102263.69;5910315;29;20049;-67
2023/09/04 06:10:47;;;;;;;10.13;4.63;;;;;;;14.32;100.00;102269.06;5893590;29;20036;-66
2023/09/04 06:13:42;;;;;;;8.47;4.47;;;;;;;13.98;100.00;102255.88;5909043;29;20397;-66
2023/09/04 06:16:37;;;;;;;11.33;5.03;;;;;;;14.15;100.00;102259.78;5909822;29;20062;-66
2023/09/04 06:19:33;;;;;;;9.43;4.60;;;;;;;14.18;100.00;102256.88;5910218;29;20045;-66
2023/09/04 06:22:28;;;;;;;11.53;5.60;;;;;;;14.35;100.00;102268.78;5909733;29;20040;-66
2023/09/04 06:25:23;;;;;;;9.53;4.47;;;;;;;14.85;100.00;102265.22;5909587;29;20084;-66
2023/09/04 06:28:19;;;;;;;9.70;4.50;;;;;;;14.82;100.00;102265.47;5909491;29;20456;-66
2023/09/04 06:31:14;;;;;;;13.43;5.27;;;;;;;14.78;100.00;102264.06;5909962;29;20396;-66
2023/09/04 06:34:09;;;;;;;9.95;4.85;;;;;;;15.58;100.00;102274.66;5909516;29;20277;-67
2023/09/04 06:37:05;;;;;;;10.67;4.23;;;;;;;15.70;100.00;102266.38;5910285;29;20075;-67
2023/09/04 06:40:00;;;;;;;11.87;5.33;;;;;;;16.23;100.00;102258.69;5913021;29;20328;-67
2023/09/04 06:42:55;;;;;;;11.53;4.87;;;;;;;16.35;100.00;102273.59;5914470;29;20036;-66
2023/09/04 06:45:50;;;;;;;11.73;5.50;;;;;;;15.95;100.00;102259.59;5912767;29;20511;-67
2023/09/04 06:48:46;;;;;;;11.53;5.33;;;;;;;16.04;100.00;102266.75;5916198;29;20024;-67
2023/09/04 06:51:42;;;;;;;16.13;5.97;;;;;;;15.98;100.00;102267.34;5915536;29;20655;-67
2023/09/04 06:54:37;;;;;;;14.75;6.10;;;;;;;15.96;100.00;102263.94;5913048;29;20695;-66
2023/09/04 06:57:33;;;;;;;14.77;6.47;;;;;;;16.17;100.00;102261.91;5913331;29;20092;-66
2023/09/04 07:00:28;;;;;;;12.37;6.40;;;;;;;16.37;100.00;102268.06;5912960;29;20044;-65
2023/09/04 07:03:23;;;;;;;10.18;5.28;;;;;;;16.55;100.00;102263.69;5912214;29;20392;-68
2023/09/04 07:06:18;;;;;;;12.80;5.23;;;;;;;16.65;100.00;102270.72;5917013;29;20044;-66
2023/09/04 07:09:14;;;;;;;15.83;6.10;;;;;;;16.64;100.00;102269.00;5913183;29;20052;-66
2023/09/04 07:12:11;;;;;;;13.30;5.73;;;;;;;16.70;100.00;102262.22;5912940;29;20611;-67
2023/09/04 07:15:07;;;;;;;12.93;6.13;;;;;;;17.34;100.00;102266.66;5912559;29;20033;-67
2023/09/04 07:18:03;;;;;;;12.73;6.30;;;;;;;16.94;97.32;102246.44;5916682;29;20140;-67
2023/09/04 07:20:58;;;;;;;15.43;5.63;;;;;;;17.44;96.08;102273.63;5912894;29;20060;-67
2023/09/04 07:23:54;;;;;;;15.60;5.50;;;;;;;17.90;92.49;102269.06;5910971;29;20469;-67
2023/09/04 07:26:49;;;;;;;18.20;5.47;;;;;;;17.67;90.36;102258.78;5911303;29;20028;-66
2023/09/04 07:29:45;;;;;;;14.45;5.55;;;;;;;17.62;92.33;102263.78;5919204;29;20044;-67
2023/09/04 07:32:40;;;;;;;9.73;4.27;;;;;;;17.59;92.38;102261.41;5911097;29;20036;-67
2023/09/04 07:35:35;;;;;;;9.60;4.50;;;;;;;17.63;93.08;102270.84;5911111;29;20063;-67
2023/09/04 07:38:31;;;;;;;9.80;3.80;;;;;;;18.12;90.29;102280.16;5911832;29;20292;-66
2023/09/04 07:41:26;;;;;;;6.63;2.95;;;;;;;18.19;89.64;102256.16;5910837;29;20041;-67
2023/09/04 07:44:22;;;;;;;5.83;3.03;;;;;;;18.00;90.50;102276.00;5911502;29;20400;-67
2023/09/04 07:47:17;;;;;;;7.57;2.90;;;;;;;18.25;90.48;102279.72;5911234;29;20076;-67
2023/09/04 07:50:12;;;;;;;9.27;3.40;;;;;;;18.45;89.43;102278.53;5910957;29;20040;-66
2023/09/04 07:53:07;;;;;;;5.50;2.60;;;;;;;18.69;88.11;102267.94;5911506;29;20393;-66
2023/09/04 07:56:03;;;;;;;4.80;2.60;;;;;;;19.15;86.08;102273.81;5910721;29;20040;-68
2023/09/04 07:58:58;;;;;;;4.50;2.10;;;;;;;19.29;82.56;102275.88;5917987;29;20051;-69
2023/09/04 08:01:53;;;;;;;4.67;2.20;;;;;;;19.29;82.93;102276.72;5914813;29;20032;-68
2023/09/04 08:04:49;;;;;;;6.67;2.53;;;;;;;19.37;82.66;102278.59;5914998;29;20552;-67
2023/09/04 08:07:44;;;;;;;5.17;1.93;;;;;;;19.46;81.79;102280.28;5917414;29;20335;-67
2023/09/04 08:10:43;;;;;;;5.73;2.40;;;;;;;19.41;80.20;102279.94;5910538;29;20036;-67
2023/09/04 08:13:38;;;;;;;3.95;1.75;;;;;;;19.61;77.80;102275.97;5912928;29;20392;-67
2023/09/04 08:16:33;;;;;;;3.70;2.20;;;;;;;19.40;78.33;102279.13;5911593;29;20047;-68
2023/09/04 08:19:29;;;;;;;3.57;2.10;;;;;;;19.55;77.86;102265.84;5911663;29;20044;-68
2023/09/04 08:22:24;;;;;;;8.30;2.40;;;;;;;19.63;79.58;102270.41;5911884;29;20107;-67
2023/09/04 08:25:19;;;;;;;5.90;2.13;;;;;;;20.03;77.91;102271.25;5910078;29;20047;-66
2023/09/04 08:28:15;;;;;;;3.25;2.00;;;;;;;20.14;76.20;102268.19;5911341;29;20499;-67
2023/09/04 08:31:12;;;;;;;4.70;1.77;;;;;;;20.65;73.41;102266.13;5910992;29;20090;-68
2023/09/04 08:34:07;;;;;;;5.03;1.90;;;;;;;20.31;73.82;102279.00;5910210;29;20442;-68
2023/09/04 08:37:03;;;;;;;4.35;2.53;;;;;;;20.41;73.46;102266.19;5910883;29;20043;-67
2023/09/04 08:39:58;;;;;;;3.70;2.40;;;;;;;20.17;72.79;102262.47;5917075;29;20040;-67
2023/09/04 08:42:54;;;;;;;4.00;2.53;;;;;;;20.18;73.35;102266.88;5910267;29;20645;-68
2023/09/04 08:45:50;;;;;;;7.25;2.38;;;;;;;20.87;71.57;102276.16;5923757;29;20040;-66
2023/09/04 08:48:46;;;;;;;5.20;2.40;;;;;;;20.75;69.70;102277.53;5910187;29;20037;-67
2023/09/04 08:51:41;;;;;;;4.80;2.38;;;;;;;20.66;70.08;102262.38;5899518;29;20033;-67
2023/09/04 08:54:36;;;;;;;4.60;2.38;;;;;;;20.79;68.79;102268.91;5896792;29;20044;-67
2023/09/04 08:57:33;;;;;;;3.50;2.17;;;;;;;21.06;68.34;102264.09;5914743;29;20144;-67
2023/09/04 09:00:28;;;;;;;4.10;2.10;;;;;;;20.99;67.40;102252.31;5909823;29;20028;-67
2023/09/04 09:03:23;;;;;;;4.35;1.83;;;;;;;21.38;67.33;102258.53;5907573;29;20361;-67
2023/09/04 09:06:19;;;;;;;3.17;1.77;;;;;;;21.47;64.34;102237.72;5910054;29;20044;-68
2023/09/04 09:09:15;;;;;;;2.97;1.55;;;;;;;21.48;64.97;102242.06;5892119;29;20036;-67
2023/09/04 09:12:10;;;;;;;4.60;2.30;;;;;;;21.32;64.10;102254.69;5893946;29;20033;-67
2023/09/04 09:15:06;;;;;;;3.60;1.77;;;;;;;21.28;63.73;102241.69;5908713;29;20032;-68
2023/09/04 09:18:02;;;;;;;5.07;1.98;;;;;;;21.46;64.58;102249.53;5911329;29;20025;-66
2023/09/04 09:20:58;;;;;;;3.63;1.80;;;;;;;21.70;64.60;102252.88;5909011;29;20036;-65
2023/09/04 09:24:17;;;;;;;3.83;1.80;;;;;;;22.04;62.56;102238.91;5910017;29;20572;-67
2023/09/04 09:27:12;;;;;;;;;;;;;;;22.11;60.97;102241.75;5915126;29;20037;-67
2023/09/04 09:30:08;;;;;;;3.23;1.50;;;;;;;22.06;60.10;102241.44;5919362;29;19975;-66
2023/09/04 09:33:12;;;;;;;3.58;1.60;;;;;;;21.63;60.21;102251.94;5907363;29;21559;-66
2023/09/04 09:36:12;;;;;;;3.90;1.90;;;;;;;21.88;60.21;102228.25;5911846;29;20033;-66
2023/09/04 09:39:07;;;;;;;2.95;1.65;;;;;;;21.74;58.31;102234.47;5916260;29;20068;-65
2023/09/04 09:42:02;;;;;;;2.20;1.40;;;;;;;21.98;58.28;102228.03;5909514;29;20032;-66
2023/09/04 09:44:58;;;;;;;3.05;1.30;;;;;;;22.22;56.07;102220.50;5909599;29;20036;-67
2023/09/04 09:47:53;;;;;;;3.67;1.80;;;;;;;21.84;56.89;102213.44;5909399;29;20033;-67
2023/09/04 09:50:49;;;;;;;4.70;2.05;;;;;;;22.06;57.94;102190.97;5893006;29;20063;-67
2023/09/04 09:53:49;;;;;;;3.80;1.70;;;;;;;22.43;57.47;102188.16;5907646;29;20389;-66
2023/09/04 09:56:44;;;;;;;3.05;1.40;;;;;;;22.49;55.82;102195.53;5911390;29;20052;-68
2023/09/04 09:59:49;;;;;;;3.85;1.65;;;;;;;22.14;56.55;102185.47;5933781;29;20082;-68
2023/09/04 10:02:45;;;;;;;3.47;1.52;;;;;;;22.31;56.48;102183.41;5908914;29;20036;-68
2023/09/04 10:05:42;;;;;;;3.53;1.38;;;;;;;22.61;55.26;102203.16;5908704;29;20654;-67
2023/09/04 10:08:40;;;;;;;5.15;1.40;;;;;;;23.01;54.18;102189.13;5909626;29;20044;-68
2023/09/04 10:11:39;;;;;;;3.08;1.58;;;;;;;23.10;52.49;102206.91;5907831;29;20392;-67
2023/09/04 10:14:39;;;;;;;3.20;1.70;;;;;;;22.94;54.52;102199.84;5908292;29;20055;-68
2023/09/04 10:17:43;;;;;;;3.25;1.45;;;;;;;23.31;53.96;102196.09;5919116;29;20043;-68
2023/09/04 10:20:40;;;;;;;2.40;1.40;;;;;;;23.20;53.54;102203.88;5909646;29;20036;-68
2023/09/04 10:23:42;;;;;;;3.00;1.55;;;;;;;23.28;52.32;102201.91;5908608;29;20040;-66
2023/09/04 10:26:52;;;;;;;2.92;1.60;;;;;;;22.83;54.80;102200.34;5892532;29;20395;-68
2023/09/04 10:29:54;;;;;;;3.63;1.70;;;;;;;23.07;55.01;102183.75;5890308;29;20055;-68
2023/09/04 10:32:50;;;;;;;4.45;1.67;;;;;;;23.07;54.72;102172.13;5920142;29;20111;-69
2023/09/04 10:35:45;;;;;;;3.83;1.70;;;;;;;23.62;54.38;102191.19;5917325;29;20107;-68
2023/09/04 10:38:41;;;;;;;4.13;1.80;;;;;;;23.36;53.13;102190.09;5897555;29;20035;-67
2023/09/04 10:41:36;;;;;;;3.88;1.65;;;;;;;23.55;53.08;102175.94;5913087;29;20058;-68
2023/09/04 10:44:48;;;;;;;3.95;1.75;;;;;;;23.38;53.73;102191.59;5906883;29;20119;-68
2023/09/04 10:47:47;;;;;;;4.03;1.77;;;;;;;23.40;54.82;102178.69;5907216;29;20048;-69
2023/09/04 10:50:42;;;;;;;2.30;1.50;;;;;;;23.91;53.64;102163.09;5908390;29;20501;-69
2023/09/04 10:53:37;;;;;;;3.70;1.57;;;;;;;24.28;51.61;102156.44;5908068;29;20036;-69
2023/09/04 10:56:51;;;;;;;2.00;1.37;;;;;;;24.25;51.70;102151.44;5909720;29;20044;-68
2023/09/04 10:59:53;;;;;;;2.53;1.48;;;;;;;24.42;53.00;102158.19;5911839;29;20028;-68
2023/09/04 11:02:48;;;;;;;3.60;1.98;;;;;;;23.98;52.34;102144.16;5908432;29;20120;-68
2023/09/04 11:06:01;;;;;;;2.53;1.23;;;;;;;23.85;51.87;102168.44;5907214;29;20036;-66
2023/09/04 11:09:00;;;;;;;4.35;1.60;;;;;;;23.65;53.30;102147.47;5908186;29;20056;-68
2023/09/04 11:11:56;;;;;;;2.80;1.50;;;;;;;23.75;52.17;102167.97;5915462;29;20115;-68
2023/09/04 11:14:53;;;;;;;2.05;1.30;;;;;;;23.86;52.68;102156.59;5922911;29;20460;-67
2023/09/04 11:17:49;;;;;;;3.90;1.40;;;;;;;24.08;52.42;102163.63;5928218;29;20755;-68
2023/09/04 11:20:45;;;;;;;2.05;1.42;;;;;;;23.96;51.66;102138.94;5908464;29;20043;-68
2023/09/04 11:23:41;;;;;;;3.55;1.95;;;;;;;23.98;51.68;102145.00;5907534;29;20029;-68
2023/09/04 11:26:37;;;;;;;2.47;1.48;;;;;;;24.24;51.08;102144.34;5910765;29;20112;-69
2023/09/04 11:29:33;;;;;;;4.45;1.55;;;;;;;24.38;50.74;102154.19;5912158;29;20500;-69
2023/09/04 11:32:29;;;;;;;3.30;1.60;;;;;;;24.82;49.69;102141.06;5915703;29;20107;-69
2023/09/04 11:35:25;;;;;;;3.40;1.80;;;;;;;24.69;49.83;102137.44;5916615;29;20040;-69
2023/09/04 11:38:25;;;;;;;3.50;1.58;;;;;;;24.79;49.20;102144.16;5909997;29;20032;-68
2023/09/04 11:41:20;;;;;;;3.35;1.40;;;;;;;24.88;48.86;102135.84;5907964;29;20036;-68
2023/09/04 11:44:16;;;;;;;3.23;1.47;;;;;;;24.45;48.84;102130.66;5910863;29;20519;-68
2023/09/04 11:47:12;;;;;;;3.53;1.47;;;;;;;24.59;49.44;102126.97;5921067;29;20291;-67
2023/09/04 11:50:14;;;;;;;5.28;2.03;;;;;;;24.40;49.67;102133.16;5921643;29;20437;-68
2023/09/04 11:53:10;;;;;;;3.97;1.40;;;;;;;24.49;51.05;102148.19;5912877;29;20043;-69
2023/09/04 11:56:05;;;;;;;3.08;1.48;;;;;;;24.98;49.12;102139.00;5922478;29;20036;-68
2023/09/04 11:59:03;;;;;;;3.25;1.42;;;;;;;24.96;48.93;102143.78;5912806;29;20040;-68
2023/09/04 12:01:59;;;;;;;2.60;1.50;;;;;;;24.77;48.95;102127.22;5913982;29;20138;-69
2023/09/04 12:04:56;;;;;;;3.13;1.42;;;;;;;24.81;48.58;102125.78;5910419;29;20032;-68
2023/09/04 12:07:53;;;;;;;4.70;1.40;;;;;;;25.28;47.06;102115.84;5911716;29;20059;-67
2023/09/04 12:10:50;;;;;;;3.92;1.45;;;;;;;25.23;47.22;102124.63;5911129;29;20074;-68
2023/09/04 12:13:45;;;;;;;3.10;1.75;;;;;;;25.27;46.50;102119.63;5911098;29;20400;-69
2023/09/04 12:16:43;;;;;;;3.20;1.50;;;;;;;25.09;45.76;102117.50;5909904;29;20028;-68
2023/09/04 12:19:39;;;;;;;4.15;1.33;;;;;;;25.26;45.17;102091.63;5911241;29;20099;-69
2023/09/04 12:22:35;;;;;;;3.58;1.48;;;;;;;25.79;43.72;102102.47;5911191;29;21628;-68
2023/09/04 12:25:41;;;;;;;3.33;1.30;;;;;;;25.53;44.95;102097.91;5910829;29;20048;-68
2023/09/04 12:28:36;;;;;;;2.55;1.33;;;;;;;25.58;45.52;102099.97;5910829;29;20052;-67
2023/09/04 12:31:32;;;;;;;2.65;1.35;;;;;;;25.77;44.22;102096.41;5911013;29;20484;-68
2023/09/04 12:34:27;;;;;;;3.73;1.50;;;;;;;25.43;44.58;102092.03;5910366;29;20021;-68
2023/09/04 12:37:23;;;;;;;3.00;1.27;;;;;;;25.64;44.85;102083.69;5911145;29;20062;-69
2023/09/04 12:40:19;;;;;;;3.47;1.25;;;;;;;25.46;44.32;102083.47;5911376;29;20301;-68
2023/09/04 12:43:14;;;;;;;3.25;1.45;;;;;;;25.39;44.49;102082.63;5913327;29;20111;-68
2023/09/04 12:46:11;;;;;;;2.03;1.10;;;;;;;25.68;43.70;102073.22;5909821;29;20087;-68
2023/09/04 12:49:06;;;;;;;2.85;1.30;;;;;;;26.14;42.99;102067.69;5909464;29;20040;-69
2023/09/04 12:52:01;;;;;;;2.50;1.20;;;;;;;25.78;41.08;102066.31;5918061;29;20068;-68
2023/09/04 12:54:57;;;;;;;3.30;1.60;;;;;;;25.48;43.50;102067.81;5909076;29;20025;-67
2023/09/04 12:57:59;;;;;;;3.30;1.30;;;;;;;25.30;43.94;102054.03;5911321;29;20107;-69
2023/09/04 13:00:54;;;;;;;4.53;1.52;;;;;;;25.47;44.39;102038.97;5893672;29;20309;-69
2023/09/04 13:03:49;;;;;;;2.77;1.43;;;;;;;25.91;43.98;102041.78;5909734;29;20028;-69
2023/09/04 13:06:44;;;;;;;2.93;1.47;;;;;;;26.33;43.67;102045.00;5910921;29;20028;-68
2023/09/04 13:09:40;;;;;;;6.43;1.30;;;;;;;26.49;41.88;102036.31;5909334;29;20277;-67
2023/09/04 13:12:37;;;;;;;3.20;1.30;;;;;;;26.20;42.19;102051.31;5907094;29;20032;-70
2023/09/04 13:15:32;;;;;;;2.85;1.45;;;;;;;26.20;42.09;102023.31;5918516;29;20039;-69
2023/09/04 13:18:27;;;;;;;1.93;1.20;;;;;;;25.95;42.33;102029.41;5908597;29;20048;-68
2023/09/04 13:21:23;;;;;;;3.10;1.40;;;;;;;25.49;43.72;102015.16;5910434;29;20033;-68
2023/09/04 13:24:18;;;;;;;2.70;1.40;;;;;;;25.73;43.62;102017.19;5910123;29;20081;-69
2023/09/04 13:27:13;;;;;;;5.03;1.53;;;;;;;25.90;43.65;102020.25;5909508;29;20040;-68
2023/09/04 13:30:09;;;;;;;2.50;1.20;;;;;;;25.71;40.67;102013.00;5910341;29;20033;-69
2023/09/04 13:33:04;;;;;;;3.63;1.58;;;;;;;25.95;41.34;102004.94;5908940;29;20413;-69